sensor_id;sensor_type;location;lat;lon;timestamp;P1;durP1;ratioP1;P2;durP2;ratioP2
12151;SDS011;6139;51.274;7.128;2024-01-16T00:00:56;12.17;;;9.20;;
12151;SDS011;6139;51.274;7.128;2024-01-16T00:01:58;14.77;;;8.70;;
12151;SDS011;6139;51.274;7.128;2024-01-16T00:03:00;12.87;;;9.40;;
12151;SDS011;6139;51.274;7.128;2024-01-16T00:04:01;14.43;;;8.60;;
12151;SDS011;6139;51.274;7.128;2024-01-16T00:05:03;12.20;;;9.03;;
12151;SDS011;6139;51.274;7.128;2024-01-16T00:06:05;11.17;;;8.77;;
12151;SDS011;6139;51.274;7.128;2024-01-16T00:07:07;16.63;;;9.73;;
12151;SDS011;6139;51.274;7.128;2024-01-16T00:08:08;11.90;;;9.00;;
12151;SDS011;6139;51.274;7.128;2024-01-16T00:09:10;15.60;;;9.03;;
12151;SDS011;6139;51.274;7.128;2024-01-16T00:10:10;14.13;;;8.77;;
12151;SDS011;6139;51.274;7.128;2024-01-16T00:11:12;12.90;;;8.63;;
12151;SDS011;6139;51.274;7.128;2024-01-16T00:12:13;11.73;;;8.57;;
12151;SDS011;6139;51.274;7.128;2024-01-16T00:13:15;12.37;;;8.50;;
12151;SDS011;6139;51.274;7.128;2024-01-16T00:14:17;15.93;;;8.77;;
12151;SDS011;6139;51.274;7.128;2024-01-16T00:15:19;10.87;;;8.43;;
12151;SDS011;6139;51.274;7.128;2024-01-16T00:16:20;11.47;;;8.70;;
12151;SDS011;6139;51.274;7.128;2024-01-16T00:17:23;10.67;;;8.67;;
12151;SDS011;6139;51.274;7.128;2024-01-16T00:18:24;12.37;;;9.00;;
12151;SDS011;6139;51.274;7.128;2024-01-16T00:19:26;12.60;;;9.00;;
12151;SDS011;6139;51.274;7.128;2024-01-16T00:20:26;14.87;;;9.43;;
12151;SDS011;6139;51.274;7.128;2024-01-16T00:21:28;13.00;;;8.73;;
12151;SDS011;6139;51.274;7.128;2024-01-16T00:22:29;11.27;;;9.13;;
12151;SDS011;6139;51.274;7.128;2024-01-16T00:23:30;13.20;;;8.83;;
12151;SDS011;6139;51.274;7.128;2024-01-16T00:24:32;11.27;;;9.03;;
12151;SDS011;6139;51.274;7.128;2024-01-16T00:25:34;11.23;;;9.60;;
12151;SDS011;6139;51.274;7.128;2024-01-16T00:26:36;11.47;;;8.90;;
12151;SDS011;6139;51.274;7.128;2024-01-16T00:27:37;13.57;;;8.90;;
12151;SDS011;6139;51.274;7.128;2024-01-16T00:28:39;12.10;;;9.20;;
12151;SDS011;6139;51.274;7.128;2024-01-16T00:29:43;12.37;;;9.20;;
12151;SDS011;6139;51.274;7.128;2024-01-16T00:30:44;13.50;;;9.37;;
12151;SDS011;6139;51.274;7.128;2024-01-16T00:31:46;13.23;;;9.37;;
12151;SDS011;6139;51.274;7.128;2024-01-16T00:32:48;12.10;;;8.77;;
12151;SDS011;6139;51.274;7.128;2024-01-16T00:33:50;13.03;;;9.17;;
12151;SDS011;6139;51.274;7.128;2024-01-16T00:34:51;13.17;;;9.80;;
12151;SDS011;6139;51.274;7.128;2024-01-16T00:35:52;18.00;;;9.63;;
12151;SDS011;6139;51.274;7.128;2024-01-16T00:36:54;14.27;;;8.63;;
12151;SDS011;6139;51.274;7.128;2024-01-16T00:37:55;12.37;;;8.60;;
12151;SDS011;6139;51.274;7.128;2024-01-16T00:38:57;13.97;;;8.93;;
12151;SDS011;6139;51.274;7.128;2024-01-16T00:39:58;14.70;;;8.80;;
12151;SDS011;6139;51.274;7.128;2024-01-16T00:41:00;13.70;;;9.17;;
12151;SDS011;6139;51.274;7.128;2024-01-16T00:42:01;12.23;;;8.53;;
12151;SDS011;6139;51.274;7.128;2024-01-16T00:43:03;14.57;;;8.57;;
12151;SDS011;6139;51.274;7.128;2024-01-16T00:44:04;13.03;;;8.07;;
12151;SDS011;6139;51.274;7.128;2024-01-16T00:45:08;10.73;;;7.70;;
12151;SDS011;6139;51.274;7.128;2024-01-16T00:46:09;11.13;;;7.73;;
12151;SDS011;6139;51.274;7.128;2024-01-16T00:47:10;11.00;;;7.43;;
12151;SDS011;6139;51.274;7.128;2024-01-16T00:48:13;10.30;;;7.50;;
12151;SDS011;6139;51.274;7.128;2024-01-16T00:49:14;11.23;;;7.40;;
12151;SDS011;6139;51.274;7.128;2024-01-16T00:50:16;9.03;;;7.00;;
12151;SDS011;6139;51.274;7.128;2024-01-16T00:51:17;10.00;;;7.57;;
12151;SDS011;6139;51.274;7.128;2024-01-16T00:52:19;8.47;;;7.00;;
12151;SDS011;6139;51.274;7.128;2024-01-16T00:53:19;10.80;;;7.07;;
12151;SDS011;6139;51.274;7.128;2024-01-16T00:54:21;10.27;;;6.30;;
12151;SDS011;6139;51.274;7.128;2024-01-16T00:55:22;8.67;;;6.40;;
12151;SDS011;6139;51.274;7.128;2024-01-16T00:56:24;11.53;;;5.90;;
12151;SDS011;6139;51.274;7.128;2024-01-16T00:57:27;7.30;;;5.90;;
12151;SDS011;6139;51.274;7.128;2024-01-16T00:58:29;5.87;;;5.20;;
12151;SDS011;6139;51.274;7.128;2024-01-16T00:59:30;8.13;;;6.00;;
12151;SDS011;6139;51.274;7.128;2024-01-16T01:00:32;8.30;;;4.97;;
12151;SDS011;6139;51.274;7.128;2024-01-16T01:01:36;5.73;;;4.67;;
12151;SDS011;6139;51.274;7.128;2024-01-16T01:02:38;8.63;;;5.00;;
12151;SDS011;6139;51.274;7.128;2024-01-16T01:03:41;8.93;;;5.70;;
12151;SDS011;6139;51.274;7.128;2024-01-16T01:04:43;8.03;;;5.40;;
12151;SDS011;6139;51.274;7.128;2024-01-16T01:05:44;6.47;;;5.00;;
12151;SDS011;6139;51.274;7.128;2024-01-16T01:06:45;7.07;;;5.00;;
12151;SDS011;6139;51.274;7.128;2024-01-16T01:07:47;9.13;;;4.90;;
12151;SDS011;6139;51.274;7.128;2024-01-16T01:08:48;7.50;;;4.60;;
12151;SDS011;6139;51.274;7.128;2024-01-16T01:09:50;8.43;;;4.77;;
12151;SDS011;6139;51.274;7.128;2024-01-16T01:10:50;7.30;;;4.93;;
12151;SDS011;6139;51.274;7.128;2024-01-16T01:11:52;9.77;;;5.77;;
12151;SDS011;6139;51.274;7.128;2024-01-16T01:12:53;7.03;;;5.10;;
12151;SDS011;6139;51.274;7.128;2024-01-16T01:13:55;8.17;;;5.10;;
12151;SDS011;6139;51.274;7.128;2024-01-16T01:14:56;8.57;;;4.97;;
12151;SDS011;6139;51.274;7.128;2024-01-16T01:15:57;10.33;;;4.90;;
12151;SDS011;6139;51.274;7.128;2024-01-16T01:17:00;8.30;;;5.00;;
12151;SDS011;6139;51.274;7.128;2024-01-16T01:18:01;7.70;;;5.10;;
12151;SDS011;6139;51.274;7.128;2024-01-16T01:19:05;7.13;;;5.17;;
12151;SDS011;6139;51.274;7.128;2024-01-16T01:20:07;7.90;;;5.20;;
12151;SDS011;6139;51.274;7.128;2024-01-16T01:21:12;6.80;;;4.70;;
12151;SDS011;6139;51.274;7.128;2024-01-16T01:22:13;8.50;;;4.90;;
12151;SDS011;6139;51.274;7.128;2024-01-16T01:23:15;8.20;;;5.70;;
12151;SDS011;6139;51.274;7.128;2024-01-16T01:24:16;6.90;;;4.63;;
12151;SDS011;6139;51.274;7.128;2024-01-16T01:25:18;13.80;;;5.47;;
12151;SDS011;6139;51.274;7.128;2024-01-16T01:26:19;10.43;;;5.13;;
12151;SDS011;6139;51.274;7.128;2024-01-16T01:27:20;7.33;;;5.20;;
12151;SDS011;6139;51.274;7.128;2024-01-16T01:28:21;8.47;;;5.00;;
12151;SDS011;6139;51.274;7.128;2024-01-16T01:29:23;6.67;;;5.00;;
12151;SDS011;6139;51.274;7.128;2024-01-16T01:30:24;7.63;;;5.67;;
12151;SDS011;6139;51.274;7.128;2024-01-16T01:31:26;9.07;;;5.87;;
12151;SDS011;6139;51.274;7.128;2024-01-16T01:32:27;6.37;;;5.57;;
12151;SDS011;6139;51.274;7.128;2024-01-16T01:33:29;11.97;;;5.90;;
12151;SDS011;6139;51.274;7.128;2024-01-16T01:34:31;10.90;;;6.70;;
12151;SDS011;6139;51.274;7.128;2024-01-16T01:35:33;12.60;;;6.60;;
12151;SDS011;6139;51.274;7.128;2024-01-16T01:36:34;11.73;;;6.93;;
12151;SDS011;6139;51.274;7.128;2024-01-16T01:37:35;11.03;;;6.47;;
12151;SDS011;6139;51.274;7.128;2024-01-16T01:38:37;11.27;;;7.00;;
12151;SDS011;6139;51.274;7.128;2024-01-16T01:39:38;11.90;;;7.33;;
12151;SDS011;6139;51.274;7.128;2024-01-16T01:40:39;8.60;;;6.80;;
12151;SDS011;6139;51.274;7.128;2024-01-16T01:41:42;8.87;;;7.07;;
12151;SDS011;6139;51.274;7.128;2024-01-16T01:42:43;9.73;;;7.23;;
12151;SDS011;6139;51.274;7.128;2024-01-16T01:43:45;7.83;;;6.93;;
12151;SDS011;6139;51.274;7.128;2024-01-16T01:44:46;10.63;;;7.27;;
12151;SDS011;6139;51.274;7.128;2024-01-16T01:45:52;8.67;;;6.47;;
12151;SDS011;6139;51.274;7.128;2024-01-16T01:47:01;11.40;;;7.00;;
12151;SDS011;6139;51.274;7.128;2024-01-16T01:48:03;11.70;;;7.23;;
12151;SDS011;6139;51.274;7.128;2024-01-16T01:49:07;11.33;;;7.87;;
12151;SDS011;6139;51.274;7.128;2024-01-16T01:50:11;11.20;;;7.37;;
12151;SDS011;6139;51.274;7.128;2024-01-16T01:51:14;11.57;;;7.53;;
12151;SDS011;6139;51.274;7.128;2024-01-16T01:52:18;10.57;;;7.53;;
12151;SDS011;6139;51.274;7.128;2024-01-16T01:53:19;12.53;;;8.20;;
12151;SDS011;6139;51.274;7.128;2024-01-16T01:54:21;12.17;;;8.20;;
12151;SDS011;6139;51.274;7.128;2024-01-16T01:55:23;12.77;;;7.30;;
12151;SDS011;6139;51.274;7.128;2024-01-16T01:56:25;11.80;;;7.80;;
12151;SDS011;6139;51.274;7.128;2024-01-16T01:57:27;10.47;;;8.27;;
12151;SDS011;6139;51.274;7.128;2024-01-16T01:58:29;14.33;;;7.90;;
12151;SDS011;6139;51.274;7.128;2024-01-16T01:59:30;11.27;;;7.17;;
12151;SDS011;6139;51.274;7.128;2024-01-16T02:00:31;11.07;;;8.53;;
12151;SDS011;6139;51.274;7.128;2024-01-16T02:01:34;12.87;;;8.03;;
12151;SDS011;6139;51.274;7.128;2024-01-16T02:02:35;11.83;;;8.37;;
12151;SDS011;6139;51.274;7.128;2024-01-16T02:03:39;13.70;;;9.53;;
12151;SDS011;6139;51.274;7.128;2024-01-16T02:04:43;12.93;;;9.13;;
12151;SDS011;6139;51.274;7.128;2024-01-16T02:05:48;14.30;;;9.23;;
12151;SDS011;6139;51.274;7.128;2024-01-16T02:06:51;13.67;;;8.83;;
12151;SDS011;6139;51.274;7.128;2024-01-16T02:07:52;12.13;;;8.70;;
12151;SDS011;6139;51.274;7.128;2024-01-16T02:08:54;11.47;;;9.37;;
12151;SDS011;6139;51.274;7.128;2024-01-16T02:09:55;12.43;;;8.73;;
12151;SDS011;6139;51.274;7.128;2024-01-16T02:10:57;14.47;;;9.37;;
12151;SDS011;6139;51.274;7.128;2024-01-16T02:11:58;14.40;;;9.00;;
12151;SDS011;6139;51.274;7.128;2024-01-16T02:12:59;13.93;;;8.53;;
12151;SDS011;6139;51.274;7.128;2024-01-16T02:14:01;15.33;;;10.20;;
12151;SDS011;6139;51.274;7.128;2024-01-16T02:15:03;12.77;;;9.17;;
12151;SDS011;6139;51.274;7.128;2024-01-16T02:16:05;12.73;;;9.33;;
12151;SDS011;6139;51.274;7.128;2024-01-16T02:17:18;17.73;;;10.17;;
12151;SDS011;6139;51.274;7.128;2024-01-16T02:18:20;17.97;;;10.13;;
12151;SDS011;6139;51.274;7.128;2024-01-16T02:19:21;17.20;;;10.43;;
12151;SDS011;6139;51.274;7.128;2024-01-16T02:20:25;17.90;;;10.80;;
12151;SDS011;6139;51.274;7.128;2024-01-16T02:21:27;14.70;;;10.53;;
12151;SDS011;6139;51.274;7.128;2024-01-16T02:22:33;16.70;;;10.40;;
12151;SDS011;6139;51.274;7.128;2024-01-16T02:23:39;15.83;;;10.70;;
12151;SDS011;6139;51.274;7.128;2024-01-16T02:24:41;16.23;;;10.60;;
12151;SDS011;6139;51.274;7.128;2024-01-16T02:25:42;14.93;;;10.70;;
12151;SDS011;6139;51.274;7.128;2024-01-16T02:26:43;16.53;;;10.97;;
12151;SDS011;6139;51.274;7.128;2024-01-16T02:27:46;14.37;;;10.27;;
12151;SDS011;6139;51.274;7.128;2024-01-16T02:28:47;15.73;;;10.17;;
12151;SDS011;6139;51.274;7.128;2024-01-16T02:29:49;16.57;;;10.50;;
12151;SDS011;6139;51.274;7.128;2024-01-16T02:30:50;14.50;;;10.63;;
12151;SDS011;6139;51.274;7.128;2024-01-16T02:31:52;16.73;;;10.23;;
12151;SDS011;6139;51.274;7.128;2024-01-16T02:32:53;12.90;;;9.97;;
12151;SDS011;6139;51.274;7.128;2024-01-16T02:33:55;15.47;;;10.53;;
12151;SDS011;6139;51.274;7.128;2024-01-16T02:34:56;14.60;;;10.93;;
12151;SDS011;6139;51.274;7.128;2024-01-16T02:35:58;17.60;;;9.83;;
12151;SDS011;6139;51.274;7.128;2024-01-16T02:36:59;12.70;;;10.07;;
12151;SDS011;6139;51.274;7.128;2024-01-16T02:38:01;11.97;;;10.33;;
12151;SDS011;6139;51.274;7.128;2024-01-16T02:39:03;13.10;;;10.03;;
12151;SDS011;6139;51.274;7.128;2024-01-16T02:40:06;15.30;;;10.53;;
12151;SDS011;6139;51.274;7.128;2024-01-16T02:41:11;18.17;;;9.93;;
12151;SDS011;6139;51.274;7.128;2024-01-16T02:42:14;16.03;;;9.90;;
12151;SDS011;6139;51.274;7.128;2024-01-16T02:43:15;14.70;;;10.60;;
12151;SDS011;6139;51.274;7.128;2024-01-16T02:44:16;15.17;;;10.80;;
12151;SDS011;6139;51.274;7.128;2024-01-16T02:45:18;13.53;;;10.57;;
12151;SDS011;6139;51.274;7.128;2024-01-16T02:46:20;18.90;;;10.97;;
12151;SDS011;6139;51.274;7.128;2024-01-16T02:47:22;13.87;;;10.20;;
12151;SDS011;6139;51.274;7.128;2024-01-16T02:48:23;14.33;;;10.50;;
12151;SDS011;6139;51.274;7.128;2024-01-16T02:49:25;13.67;;;10.03;;
12151;SDS011;6139;51.274;7.128;2024-01-16T02:50:26;11.57;;;9.60;;
12151;SDS011;6139;51.274;7.128;2024-01-16T02:51:28;16.67;;;10.07;;
12151;SDS011;6139;51.274;7.128;2024-01-16T02:52:29;17.43;;;10.57;;
12151;SDS011;6139;51.274;7.128;2024-01-16T02:53:31;10.80;;;9.67;;
12151;SDS011;6139;51.274;7.128;2024-01-16T02:54:33;13.37;;;10.13;;
12151;SDS011;6139;51.274;7.128;2024-01-16T02:55:35;15.23;;;10.43;;
12151;SDS011;6139;51.274;7.128;2024-01-16T02:56:36;13.60;;;10.57;;
12151;SDS011;6139;51.274;7.128;2024-01-16T02:57:38;15.20;;;11.00;;
12151;SDS011;6139;51.274;7.128;2024-01-16T02:58:39;13.53;;;10.23;;
12151;SDS011;6139;51.274;7.128;2024-01-16T02:59:43;14.27;;;10.50;;
12151;SDS011;6139;51.274;7.128;2024-01-16T03:00:43;16.33;;;10.47;;
12151;SDS011;6139;51.274;7.128;2024-01-16T03:01:45;13.77;;;10.67;;
12151;SDS011;6139;51.274;7.128;2024-01-16T03:02:46;14.90;;;11.03;;
12151;SDS011;6139;51.274;7.128;2024-01-16T03:03:48;15.27;;;11.60;;
12151;SDS011;6139;51.274;7.128;2024-01-16T03:04:50;14.80;;;11.03;;
12151;SDS011;6139;51.274;7.128;2024-01-16T03:05:51;19.80;;;11.30;;
12151;SDS011;6139;51.274;7.128;2024-01-16T03:06:52;15.87;;;11.40;;
12151;SDS011;6139;51.274;7.128;2024-01-16T03:07:53;16.37;;;11.87;;
12151;SDS011;6139;51.274;7.128;2024-01-16T03:08:55;15.00;;;11.13;;
12151;SDS011;6139;51.274;7.128;2024-01-16T03:09:58;14.43;;;10.80;;
12151;SDS011;6139;51.274;7.128;2024-01-16T03:10:59;16.40;;;11.07;;
12151;SDS011;6139;51.274;7.128;2024-01-16T03:12:01;15.80;;;11.40;;
12151;SDS011;6139;51.274;7.128;2024-01-16T03:13:03;15.17;;;11.23;;
12151;SDS011;6139;51.274;7.128;2024-01-16T03:14:04;14.83;;;11.53;;
12151;SDS011;6139;51.274;7.128;2024-01-16T03:15:06;17.53;;;12.23;;
12151;SDS011;6139;51.274;7.128;2024-01-16T03:16:08;16.27;;;12.43;;
12151;SDS011;6139;51.274;7.128;2024-01-16T03:17:11;16.67;;;11.80;;
12151;SDS011;6139;51.274;7.128;2024-01-16T03:18:12;17.80;;;13.03;;
12151;SDS011;6139;51.274;7.128;2024-01-16T03:19:13;16.07;;;12.00;;
12151;SDS011;6139;51.274;7.128;2024-01-16T03:20:15;15.93;;;11.77;;
12151;SDS011;6139;51.274;7.128;2024-01-16T03:21:17;18.40;;;13.40;;
12151;SDS011;6139;51.274;7.128;2024-01-16T03:22:18;15.63;;;11.47;;
12151;SDS011;6139;51.274;7.128;2024-01-16T03:23:19;17.97;;;12.40;;
12151;SDS011;6139;51.274;7.128;2024-01-16T03:24:21;20.33;;;12.57;;
12151;SDS011;6139;51.274;7.128;2024-01-16T03:25:23;22.47;;;12.90;;
12151;SDS011;6139;51.274;7.128;2024-01-16T03:26:25;16.57;;;12.77;;
12151;SDS011;6139;51.274;7.128;2024-01-16T03:27:26;17.47;;;13.00;;
12151;SDS011;6139;51.274;7.128;2024-01-16T03:28:28;17.30;;;13.00;;
12151;SDS011;6139;51.274;7.128;2024-01-16T03:29:29;19.93;;;13.00;;
12151;SDS011;6139;51.274;7.128;2024-01-16T03:30:30;17.43;;;12.27;;
12151;SDS011;6139;51.274;7.128;2024-01-16T03:31:32;16.73;;;12.40;;
12151;SDS011;6139;51.274;7.128;2024-01-16T03:32:33;16.57;;;12.13;;
12151;SDS011;6139;51.274;7.128;2024-01-16T03:33:35;15.93;;;12.37;;
12151;SDS011;6139;51.274;7.128;2024-01-16T03:34:42;18.23;;;12.17;;
12151;SDS011;6139;51.274;7.128;2024-01-16T03:35:44;17.27;;;12.10;;
12151;SDS011;6139;51.274;7.128;2024-01-16T03:36:44;15.87;;;12.40;;
12151;SDS011;6139;51.274;7.128;2024-01-16T03:37:47;18.30;;;12.70;;
12151;SDS011;6139;51.274;7.128;2024-01-16T03:38:48;17.63;;;12.87;;
12151;SDS011;6139;51.274;7.128;2024-01-16T03:39:50;15.00;;;12.07;;
12151;SDS011;6139;51.274;7.128;2024-01-16T03:40:53;17.70;;;12.20;;
12151;SDS011;6139;51.274;7.128;2024-01-16T03:41:54;17.03;;;12.47;;
12151;SDS011;6139;51.274;7.128;2024-01-16T03:42:56;19.13;;;12.60;;
12151;SDS011;6139;51.274;7.128;2024-01-16T03:43:57;17.27;;;12.00;;
12151;SDS011;6139;51.274;7.128;2024-01-16T03:44:58;17.40;;;11.93;;
12151;SDS011;6139;51.274;7.128;2024-01-16T03:45:59;18.03;;;12.03;;
12151;SDS011;6139;51.274;7.128;2024-01-16T03:47:01;18.90;;;12.50;;
12151;SDS011;6139;51.274;7.128;2024-01-16T03:48:03;16.17;;;12.27;;
12151;SDS011;6139;51.274;7.128;2024-01-16T03:49:06;17.77;;;12.03;;
12151;SDS011;6139;51.274;7.128;2024-01-16T03:50:07;13.40;;;11.40;;
12151;SDS011;6139;51.274;7.128;2024-01-16T03:51:09;16.83;;;12.13;;
12151;SDS011;6139;51.274;7.128;2024-01-16T03:52:11;14.93;;;11.73;;
12151;SDS011;6139;51.274;7.128;2024-01-16T03:53:13;18.50;;;11.70;;
12151;SDS011;6139;51.274;7.128;2024-01-16T03:54:13;16.10;;;11.33;;
12151;SDS011;6139;51.274;7.128;2024-01-16T03:55:15;15.97;;;11.50;;
12151;SDS011;6139;51.274;7.128;2024-01-16T03:56:18;16.47;;;11.93;;
12151;SDS011;6139;51.274;7.128;2024-01-16T03:57:19;16.57;;;12.23;;
12151;SDS011;6139;51.274;7.128;2024-01-16T03:58:21;21.37;;;12.37;;
12151;SDS011;6139;51.274;7.128;2024-01-16T03:59:23;15.23;;;11.87;;
12151;SDS011;6139;51.274;7.128;2024-01-16T04:00:25;19.00;;;13.30;;
12151;SDS011;6139;51.274;7.128;2024-01-16T04:01:29;18.17;;;13.03;;
12151;SDS011;6139;51.274;7.128;2024-01-16T04:02:32;18.40;;;11.40;;
12151;SDS011;6139;51.274;7.128;2024-01-16T04:03:33;15.57;;;13.27;;
12151;SDS011;6139;51.274;7.128;2024-01-16T04:04:35;18.47;;;13.03;;
12151;SDS011;6139;51.274;7.128;2024-01-16T04:05:37;20.70;;;13.83;;
12151;SDS011;6139;51.274;7.128;2024-01-16T04:06:37;17.90;;;13.53;;
12151;SDS011;6139;51.274;7.128;2024-01-16T04:07:39;17.27;;;13.20;;
12151;SDS011;6139;51.274;7.128;2024-01-16T04:08:40;16.33;;;12.17;;
12151;SDS011;6139;51.274;7.128;2024-01-16T04:09:42;17.00;;;12.83;;
12151;SDS011;6139;51.274;7.128;2024-01-16T04:10:44;18.90;;;14.03;;
12151;SDS011;6139;51.274;7.128;2024-01-16T04:11:50;20.90;;;13.80;;
12151;SDS011;6139;51.274;7.128;2024-01-16T04:12:51;18.20;;;13.23;;
12151;SDS011;6139;51.274;7.128;2024-01-16T04:13:53;19.63;;;13.40;;
12151;SDS011;6139;51.274;7.128;2024-01-16T04:14:54;18.03;;;13.77;;
12151;SDS011;6139;51.274;7.128;2024-01-16T04:15:56;18.00;;;13.10;;
12151;SDS011;6139;51.274;7.128;2024-01-16T04:16:57;18.83;;;13.10;;
12151;SDS011;6139;51.274;7.128;2024-01-16T04:17:59;15.47;;;12.27;;
12151;SDS011;6139;51.274;7.128;2024-01-16T04:19:00;17.63;;;12.37;;
12151;SDS011;6139;51.274;7.128;2024-01-16T04:20:02;15.10;;;12.77;;
12151;SDS011;6139;51.274;7.128;2024-01-16T04:21:04;15.37;;;12.47;;
12151;SDS011;6139;51.274;7.128;2024-01-16T04:22:06;18.63;;;12.87;;
12151;SDS011;6139;51.274;7.128;2024-01-16T04:23:07;18.47;;;12.83;;
12151;SDS011;6139;51.274;7.128;2024-01-16T04:24:09;18.83;;;13.23;;
12151;SDS011;6139;51.274;7.128;2024-01-16T04:25:10;20.03;;;12.83;;
12151;SDS011;6139;51.274;7.128;2024-01-16T04:26:11;15.53;;;12.30;;
12151;SDS011;6139;51.274;7.128;2024-01-16T04:27:14;17.43;;;12.37;;
12151;SDS011;6139;51.274;7.128;2024-01-16T04:28:16;17.10;;;11.97;;
12151;SDS011;6139;51.274;7.128;2024-01-16T04:29:17;18.70;;;12.40;;
12151;SDS011;6139;51.274;7.128;2024-01-16T04:30:18;15.30;;;11.80;;
12151;SDS011;6139;51.274;7.128;2024-01-16T04:31:20;15.70;;;10.93;;
12151;SDS011;6139;51.274;7.128;2024-01-16T04:32:22;16.73;;;12.57;;
12151;SDS011;6139;51.274;7.128;2024-01-16T04:33:23;14.20;;;10.83;;
12151;SDS011;6139;51.274;7.128;2024-01-16T04:34:25;15.20;;;11.10;;
12151;SDS011;6139;51.274;7.128;2024-01-16T04:35:26;13.23;;;10.47;;
12151;SDS011;6139;51.274;7.128;2024-01-16T04:36:28;14.40;;;11.40;;
12151;SDS011;6139;51.274;7.128;2024-01-16T04:37:30;13.83;;;11.07;;
12151;SDS011;6139;51.274;7.128;2024-01-16T04:38:31;15.63;;;10.80;;
12151;SDS011;6139;51.274;7.128;2024-01-16T04:39:32;13.47;;;11.00;;
12151;SDS011;6139;51.274;7.128;2024-01-16T04:40:33;14.00;;;10.70;;
12151;SDS011;6139;51.274;7.128;2024-01-16T04:41:35;14.30;;;10.30;;
12151;SDS011;6139;51.274;7.128;2024-01-16T04:42:38;14.00;;;10.30;;
12151;SDS011;6139;51.274;7.128;2024-01-16T04:43:40;16.90;;;9.93;;
12151;SDS011;6139;51.274;7.128;2024-01-16T04:44:40;13.27;;;9.90;;
12151;SDS011;6139;51.274;7.128;2024-01-16T04:45:41;13.83;;;9.50;;
12151;SDS011;6139;51.274;7.128;2024-01-16T04:46:43;13.40;;;9.27;;
12151;SDS011;6139;51.274;7.128;2024-01-16T04:47:44;10.47;;;9.20;;
12151;SDS011;6139;51.274;7.128;2024-01-16T04:48:46;13.30;;;9.77;;
12151;SDS011;6139;51.274;7.128;2024-01-16T04:49:47;12.73;;;8.90;;
12151;SDS011;6139;51.274;7.128;2024-01-16T04:50:49;12.70;;;9.33;;
12151;SDS011;6139;51.274;7.128;2024-01-16T04:51:50;13.47;;;9.40;;
12151;SDS011;6139;51.274;7.128;2024-01-16T04:52:52;10.07;;;8.80;;
12151;SDS011;6139;51.274;7.128;2024-01-16T04:53:54;11.13;;;9.27;;
12151;SDS011;6139;51.274;7.128;2024-01-16T04:54:56;14.33;;;8.90;;
12151;SDS011;6139;51.274;7.128;2024-01-16T04:55:57;13.20;;;9.43;;
12151;SDS011;6139;51.274;7.128;2024-01-16T04:56:59;12.77;;;8.53;;
12151;SDS011;6139;51.274;7.128;2024-01-16T04:58:01;13.40;;;9.10;;
12151;SDS011;6139;51.274;7.128;2024-01-16T04:59:04;12.73;;;9.17;;
12151;SDS011;6139;51.274;7.128;2024-01-16T05:00:05;15.87;;;9.07;;
12151;SDS011;6139;51.274;7.128;2024-01-16T05:01:08;11.70;;;8.30;;
12151;SDS011;6139;51.274;7.128;2024-01-16T05:02:09;12.83;;;8.90;;
12151;SDS011;6139;51.274;7.128;2024-01-16T05:03:11;13.30;;;9.33;;
12151;SDS011;6139;51.274;7.128;2024-01-16T05:04:12;12.60;;;9.27;;
12151;SDS011;6139;51.274;7.128;2024-01-16T05:05:14;12.43;;;8.70;;
12151;SDS011;6139;51.274;7.128;2024-01-16T05:06:15;12.10;;;9.77;;
12151;SDS011;6139;51.274;7.128;2024-01-16T05:07:17;10.47;;;8.97;;
12151;SDS011;6139;51.274;7.128;2024-01-16T05:08:21;12.87;;;8.43;;
12151;SDS011;6139;51.274;7.128;2024-01-16T05:09:22;12.93;;;9.10;;
12151;SDS011;6139;51.274;7.128;2024-01-16T05:10:24;13.63;;;9.40;;
12151;SDS011;6139;51.274;7.128;2024-01-16T05:11:25;14.07;;;9.03;;
12151;SDS011;6139;51.274;7.128;2024-01-16T05:12:27;10.87;;;8.80;;
12151;SDS011;6139;51.274;7.128;2024-01-16T05:13:29;12.40;;;9.20;;
12151;SDS011;6139;51.274;7.128;2024-01-16T05:14:31;11.13;;;8.87;;
12151;SDS011;6139;51.274;7.128;2024-01-16T05:15:32;13.97;;;9.50;;
12151;SDS011;6139;51.274;7.128;2024-01-16T05:16:34;12.93;;;9.13;;
12151;SDS011;6139;51.274;7.128;2024-01-16T05:17:35;12.97;;;8.87;;
12151;SDS011;6139;51.274;7.128;2024-01-16T05:18:40;13.83;;;9.53;;
12151;SDS011;6139;51.274;7.128;2024-01-16T05:19:42;11.67;;;8.80;;
12151;SDS011;6139;51.274;7.128;2024-01-16T05:20:43;14.93;;;9.20;;
12151;SDS011;6139;51.274;7.128;2024-01-16T05:21:44;14.93;;;9.17;;
12151;SDS011;6139;51.274;7.128;2024-01-16T05:22:46;13.17;;;9.40;;
12151;SDS011;6139;51.274;7.128;2024-01-16T05:23:47;15.20;;;10.33;;
12151;SDS011;6139;51.274;7.128;2024-01-16T05:24:49;13.33;;;9.30;;
12151;SDS011;6139;51.274;7.128;2024-01-16T05:25:50;13.10;;;9.20;;
12151;SDS011;6139;51.274;7.128;2024-01-16T05:26:51;10.57;;;8.67;;
12151;SDS011;6139;51.274;7.128;2024-01-16T05:27:53;13.10;;;9.07;;
12151;SDS011;6139;51.274;7.128;2024-01-16T05:28:55;12.07;;;8.87;;
12151;SDS011;6139;51.274;7.128;2024-01-16T05:29:57;17.10;;;8.63;;
12151;SDS011;6139;51.274;7.128;2024-01-16T05:30:59;12.67;;;8.77;;
12151;SDS011;6139;51.274;7.128;2024-01-16T05:32:01;10.67;;;8.80;;
12151;SDS011;6139;51.274;7.128;2024-01-16T05:33:02;12.30;;;8.93;;
12151;SDS011;6139;51.274;7.128;2024-01-16T05:34:05;13.97;;;8.93;;
12151;SDS011;6139;51.274;7.128;2024-01-16T05:35:06;14.90;;;8.53;;
12151;SDS011;6139;51.274;7.128;2024-01-16T05:36:09;14.83;;;9.20;;
12151;SDS011;6139;51.274;7.128;2024-01-16T05:37:11;12.83;;;8.80;;
12151;SDS011;6139;51.274;7.128;2024-01-16T05:38:14;10.87;;;8.37;;
12151;SDS011;6139;51.274;7.128;2024-01-16T05:39:14;12.67;;;9.60;;
12151;SDS011;6139;51.274;7.128;2024-01-16T05:40:17;12.17;;;8.97;;
12151;SDS011;6139;51.274;7.128;2024-01-16T05:41:18;13.90;;;9.53;;
12151;SDS011;6139;51.274;7.128;2024-01-16T05:42:20;12.37;;;9.03;;
12151;SDS011;6139;51.274;7.128;2024-01-16T05:43:21;13.53;;;9.30;;
12151;SDS011;6139;51.274;7.128;2024-01-16T05:44:23;12.73;;;9.80;;
12151;SDS011;6139;51.274;7.128;2024-01-16T05:45:25;13.00;;;10.30;;
12151;SDS011;6139;51.274;7.128;2024-01-16T05:46:26;12.73;;;9.50;;
12151;SDS011;6139;51.274;7.128;2024-01-16T05:47:28;16.23;;;10.83;;
12151;SDS011;6139;51.274;7.128;2024-01-16T05:48:30;12.50;;;9.97;;
12151;SDS011;6139;51.274;7.128;2024-01-16T05:49:32;11.77;;;9.67;;
12151;SDS011;6139;51.274;7.128;2024-01-16T05:50:33;14.93;;;10.43;;
12151;SDS011;6139;51.274;7.128;2024-01-16T05:51:35;15.43;;;10.80;;
12151;SDS011;6139;51.274;7.128;2024-01-16T05:52:37;12.63;;;9.97;;
12151;SDS011;6139;51.274;7.128;2024-01-16T05:53:41;14.93;;;10.63;;
12151;SDS011;6139;51.274;7.128;2024-01-16T05:54:43;14.30;;;10.77;;
12151;SDS011;6139;51.274;7.128;2024-01-16T05:55:44;12.80;;;10.70;;
12151;SDS011;6139;51.274;7.128;2024-01-16T05:56:46;17.43;;;10.83;;
12151;SDS011;6139;51.274;7.128;2024-01-16T05:57:47;14.60;;;11.27;;
12151;SDS011;6139;51.274;7.128;2024-01-16T05:58:49;13.00;;;11.33;;
12151;SDS011;6139;51.274;7.128;2024-01-16T05:59:51;15.53;;;11.47;;
12151;SDS011;6139;51.274;7.128;2024-01-16T06:00:53;13.50;;;10.63;;
12151;SDS011;6139;51.274;7.128;2024-01-16T06:01:56;16.90;;;11.97;;
12151;SDS011;6139;51.274;7.128;2024-01-16T06:02:57;16.13;;;11.90;;
12151;SDS011;6139;51.274;7.128;2024-01-16T06:03:58;15.57;;;11.17;;
12151;SDS011;6139;51.274;7.128;2024-01-16T06:05:00;16.23;;;11.07;;
12151;SDS011;6139;51.274;7.128;2024-01-16T06:06:03;16.03;;;11.50;;
12151;SDS011;6139;51.274;7.128;2024-01-16T06:07:05;15.50;;;11.70;;
12151;SDS011;6139;51.274;7.128;2024-01-16T06:08:07;17.03;;;11.80;;
12151;SDS011;6139;51.274;7.128;2024-01-16T06:09:09;13.70;;;11.17;;
12151;SDS011;6139;51.274;7.128;2024-01-16T06:10:14;15.77;;;11.83;;
12151;SDS011;6139;51.274;7.128;2024-01-16T06:11:16;16.33;;;11.77;;